sensor_id;sensor_type;location;lat;lon;timestamp;temperature;humidity
47540;DHT22;33280;52.152;21.052;2024-02-21T00:01:28;4.40;99.90
47540;DHT22;33280;52.152;21.052;2024-02-21T00:04:16;4.40;99.90
47540;DHT22;33280;52.152;21.052;2024-02-21T00:07:04;4.30;99.90
47540;DHT22;33280;52.152;21.052;2024-02-21T00:09:51;4.40;99.90
47540;DHT22;33280;52.152;21.052;2024-02-21T00:12:38;4.40;99.90
47540;DHT22;33280;52.152;21.052;2024-02-21T00:15:26;4.40;99.90
47540;DHT22;33280;52.152;21.052;2024-02-21T00:18:14;4.40;99.90
47540;DHT22;33280;52.152;21.052;2024-02-21T00:21:02;4.40;99.90
47540;DHT22;33280;52.152;21.052;2024-02-21T00:23:50;4.40;99.90
47540;DHT22;33280;52.152;21.052;2024-02-21T00:26:38;4.50;99.90
47540;DHT22;33280;52.152;21.052;2024-02-21T00:29:25;4.50;99.90
47540;DHT22;33280;52.152;21.052;2024-02-21T00:32:14;4.50;99.90
47540;DHT22;33280;52.152;21.052;2024-02-21T00:35:01;4.50;99.90
47540;DHT22;33280;52.152;21.052;2024-02-21T00:37:50;4.40;99.90
47540;DHT22;33280;52.152;21.052;2024-02-21T00:40:38;4.50;99.90
47540;DHT22;33280;52.152;21.052;2024-02-21T00:43:25;4.60;99.90
47540;DHT22;33280;52.152;21.052;2024-02-21T00:46:13;4.60;99.90
47540;DHT22;33280;52.152;21.052;2024-02-21T00:49:00;4.60;99.90
47540;DHT22;33280;52.152;21.052;2024-02-21T00:51:47;4.70;99.90
47540;DHT22;33280;52.152;21.052;2024-02-21T00:54:35;4.70;99.90
47540;DHT22;33280;52.152;21.052;2024-02-21T00:57:36;4.70;99.90
47540;DHT22;33280;52.152;21.052;2024-02-21T01:00:24;4.70;99.90
47540;DHT22;33280;52.152;21.052;2024-02-21T01:03:11;4.70;99.90
47540;DHT22;33280;52.152;21.052;2024-02-21T01:05:59;4.70;99.90
47540;DHT22;33280;52.152;21.052;2024-02-21T01:08:49;4.70;99.90
47540;DHT22;33280;52.152;21.052;2024-02-21T01:11:37;4.70;99.90
47540;DHT22;33280;52.152;21.052;2024-02-21T01:14:24;4.70;99.90
47540;DHT22;33280;52.152;21.052;2024-02-21T01:17:12;4.70;99.90
47540;DHT22;33280;52.152;21.052;2024-02-21T01:20:00;4.70;99.90
47540;DHT22;33280;52.152;21.052;2024-02-21T01:22:48;4.70;99.90
47540;DHT22;33280;52.152;21.052;2024-02-21T01:25:36;4.70;99.90
47540;DHT22;33280;52.152;21.052;2024-02-21T01:28:23;4.80;99.90
47540;DHT22;33280;52.152;21.052;2024-02-21T01:31:11;4.80;99.90
47540;DHT22;33280;52.152;21.052;2024-02-21T01:34:00;4.80;99.90
47540;DHT22;33280;52.152;21.052;2024-02-21T01:36:47;4.90;99.90
47540;DHT22;33280;52.152;21.052;2024-02-21T01:39:38;4.90;99.90
47540;DHT22;33280;52.152;21.052;2024-02-21T01:42:26;4.90;99.90
47540;DHT22;33280;52.152;21.052;2024-02-21T01:45:13;4.90;99.90
47540;DHT22;33280;52.152;21.052;2024-02-21T01:48:05;4.90;99.90
47540;DHT22;33280;52.152;21.052;2024-02-21T01:50:54;4.90;99.90
47540;DHT22;33280;52.152;21.052;2024-02-21T01:53:43;4.80;99.90
47540;DHT22;33280;52.152;21.052;2024-02-21T01:56:32;4.80;99.90
47540;DHT22;33280;52.152;21.052;2024-02-21T01:59:21;4.70;99.90
47540;DHT22;33280;52.152;21.052;2024-02-21T02:02:09;4.80;99.90
47540;DHT22;33280;52.152;21.052;2024-02-21T02:04:57;4.80;99.90
47540;DHT22;33280;52.152;21.052;2024-02-21T02:07:45;4.90;99.90
47540;DHT22;33280;52.152;21.052;2024-02-21T02:10:33;4.90;99.90
47540;DHT22;33280;52.152;21.052;2024-02-21T02:13:21;4.90;99.90
47540;DHT22;33280;52.152;21.052;2024-02-21T02:16:09;4.80;99.90
47540;DHT22;33280;52.152;21.052;2024-02-21T02:18:56;4.80;99.90
47540;DHT22;33280;52.152;21.052;2024-02-21T02:21:50;4.70;99.90
47540;DHT22;33280;52.152;21.052;2024-02-21T02:24:43;4.70;99.90
47540;DHT22;33280;52.152;21.052;2024-02-21T02:27:31;4.80;99.90
47540;DHT22;33280;52.152;21.052;2024-02-21T02:30:19;4.90;99.90
47540;DHT22;33280;52.152;21.052;2024-02-21T02:33:06;4.90;99.90
47540;DHT22;33280;52.152;21.052;2024-02-21T02:35:54;4.80;99.90
47540;DHT22;33280;52.152;21.052;2024-02-21T02:38:42;4.80;99.90
47540;DHT22;33280;52.152;21.052;2024-02-21T02:41:29;4.80;99.90
47540;DHT22;33280;52.152;21.052;2024-02-21T02:44:17;4.80;99.90
47540;DHT22;33280;52.152;21.052;2024-02-21T02:47:05;4.90;99.90
47540;DHT22;33280;52.152;21.052;2024-02-21T02:49:53;4.90;99.90
47540;DHT22;33280;52.152;21.052;2024-02-21T02:52:41;4.90;99.90
47540;DHT22;33280;52.152;21.052;2024-02-21T02:55:29;4.80;99.90
47540;DHT22;33280;52.152;21.052;2024-02-21T02:58:17;4.90;99.90
47540;DHT22;33280;52.152;21.052;2024-02-21T03:01:06;4.80;99.90
47540;DHT22;33280;52.152;21.052;2024-02-21T03:03:54;4.90;99.90
47540;DHT22;33280;52.152;21.052;2024-02-21T03:06:42;4.90;99.90
47540;DHT22;33280;52.152;21.052;2024-02-21T03:09:30;5.00;99.90
47540;DHT22;33280;52.152;21.052;2024-02-21T03:12:17;5.00;99.90
47540;DHT22;33280;52.152;21.052;2024-02-21T03:15:15;5.00;99.90
47540;DHT22;33280;52.152;21.052;2024-02-21T03:18:02;5.00;99.90
47540;DHT22;33280;52.152;21.052;2024-02-21T03:20:50;5.00;99.90
47540;DHT22;33280;52.152;21.052;2024-02-21T03:23:37;5.00;99.90
47540;DHT22;33280;52.152;21.052;2024-02-21T03:26:25;5.00;99.90
47540;DHT22;33280;52.152;21.052;2024-02-21T03:29:12;5.00;99.90
47540;DHT22;33280;52.152;21.052;2024-02-21T03:32:00;5.00;99.90
47540;DHT22;33280;52.152;21.052;2024-02-21T03:34:47;5.00;99.90
47540;DHT22;33280;52.152;21.052;2024-02-21T03:37:35;5.00;99.90
47540;DHT22;33280;52.152;21.052;2024-02-21T03:40:22;5.00;99.90
47540;DHT22;33280;52.152;21.052;2024-02-21T03:43:10;4.90;99.90
47540;DHT22;33280;52.152;21.052;2024-02-21T03:45:58;4.90;99.90
47540;DHT22;33280;52.152;21.052;2024-02-21T03:48:45;4.90;99.90
47540;DHT22;33280;52.152;21.052;2024-02-21T03:51:33;4.90;99.90
47540;DHT22;33280;52.152;21.052;2024-02-21T03:54:21;4.80;99.90
47540;DHT22;33280;52.152;21.052;2024-02-21T03:57:08;4.80;99.90
47540;DHT22;33280;52.152;21.052;2024-02-21T03:59:56;4.80;99.90
47540;DHT22;33280;52.152;21.052;2024-02-21T04:02:44;4.80;99.90
47540;DHT22;33280;52.152;21.052;2024-02-21T04:05:31;4.80;99.90
47540;DHT22;33280;52.152;21.052;2024-02-21T04:08:19;4.70;99.90
47540;DHT22;33280;52.152;21.052;2024-02-21T04:11:07;4.70;99.90
47540;DHT22;33280;52.152;21.052;2024-02-21T04:13:57;4.70;99.90
47540;DHT22;33280;52.152;21.052;2024-02-21T04:16:45;4.70;99.90
47540;DHT22;33280;52.152;21.052;2024-02-21T04:19:33;4.60;99.90
47540;DHT22;33280;52.152;21.052;2024-02-21T04:22:21;4.70;99.90
47540;DHT22;33280;52.152;21.052;2024-02-21T04:25:08;4.70;99.90
47540;DHT22;33280;52.152;21.052;2024-02-21T04:27:56;4.70;99.90
47540;DHT22;33280;52.152;21.052;2024-02-21T04:30:44;4.70;99.90
47540;DHT22;33280;52.152;21.052;2024-02-21T04:33:32;4.80;99.90
47540;DHT22;33280;52.152;21.052;2024-02-21T04:36:19;4.80;99.90
47540;DHT22;33280;52.152;21.052;2024-02-21T04:39:07;4.80;99.90
47540;DHT22;33280;52.152;21.052;2024-02-21T04:41:55;4.80;99.90
47540;DHT22;33280;52.152;21.052;2024-02-21T04:44:43;4.80;99.90
47540;DHT22;33280;52.152;21.052;2024-02-21T04:47:30;4.80;99.90
47540;DHT22;33280;52.152;21.052;2024-02-21T04:50:18;4.80;99.90
47540;DHT22;33280;52.152;21.052;2024-02-21T04:53:06;4.80;99.90
47540;DHT22;33280;52.152;21.052;2024-02-21T04:55:54;4.90;99.90
47540;DHT22;33280;52.152;21.052;2024-02-21T04:58:42;4.90;99.90
47540;DHT22;33280;52.152;21.052;2024-02-21T05:01:30;4.80;99.90
47540;DHT22;33280;52.152;21.052;2024-02-21T05:04:18;4.90;99.90
47540;DHT22;33280;52.152;21.052;2024-02-21T05:07:06;4.90;99.90
47540;DHT22;33280;52.152;21.052;2024-02-21T05:09:54;5.00;99.90
47540;DHT22;33280;52.152;21.052;2024-02-21T05:12:42;5.00;99.90
47540;DHT22;33280;52.152;21.052;2024-02-21T05:15:29;4.90;99.90
47540;DHT22;33280;52.152;21.052;2024-02-21T05:18:17;5.00;99.90
47540;DHT22;33280;52.152;21.052;2024-02-21T05:21:05;4.90;99.90
47540;DHT22;33280;52.152;21.052;2024-02-21T05:23:53;4.90;99.90
47540;DHT22;33280;52.152;21.052;2024-02-21T05:26:41;4.90;99.90
47540;DHT22;33280;52.152;21.052;2024-02-21T05:29:28;4.80;99.90
47540;DHT22;33280;52.152;21.052;2024-02-21T05:32:16;4.80;99.90
47540;DHT22;33280;52.152;21.052;2024-02-21T05:35:04;4.80;99.90
47540;DHT22;33280;52.152;21.052;2024-02-21T05:37:51;4.90;99.90
47540;DHT22;33280;52.152;21.052;2024-02-21T05:40:40;4.80;99.90
47540;DHT22;33280;52.152;21.052;2024-02-21T05:43:28;4.80;99.90
47540;DHT22;33280;52.152;21.052;2024-02-21T05:46:19;4.90;99.90
47540;DHT22;33280;52.152;21.052;2024-02-21T05:49:07;4.90;99.90
47540;DHT22;33280;52.152;21.052;2024-02-21T05:51:55;4.90;99.90
47540;DHT22;33280;52.152;21.052;2024-02-21T05:54:42;4.90;99.90
47540;DHT22;33280;52.152;21.052;2024-02-21T05:57:30;5.00;99.90
47540;DHT22;33280;52.152;21.052;2024-02-21T06:00:18;4.90;99.90
47540;DHT22;33280;52.152;21.052;2024-02-21T06:03:05;4.90;99.90
47540;DHT22;33280;52.152;21.052;2024-02-21T06:05:54;5.00;99.90
47540;DHT22;33280;52.152;21.052;2024-02-21T06:08:41;5.10;99.90
47540;DHT22;33280;52.152;21.052;2024-02-21T06:11:29;5.10;99.90
47540;DHT22;33280;52.152;21.052;2024-02-21T06:14:17;5.10;99.90
47540;DHT22;33280;52.152;21.052;2024-02-21T06:17:05;5.00;99.90
47540;DHT22;33280;52.152;21.052;2024-02-21T06:19:53;5.10;99.90
47540;DHT22;33280;52.152;21.052;2024-02-21T06:22:40;5.10;99.90
47540;DHT22;33280;52.152;21.052;2024-02-21T06:25:31;5.20;99.90
47540;DHT22;33280;52.152;21.052;2024-02-21T06:28:19;5.20;99.90
47540;DHT22;33280;52.152;21.052;2024-02-21T06:31:07;5.20;99.90
47540;DHT22;33280;52.152;21.052;2024-02-21T06:33:55;5.20;99.90
47540;DHT22;33280;52.152;21.052;2024-02-21T06:36:44;5.20;99.90
47540;DHT22;33280;52.152;21.052;2024-02-21T06:39:40;5.20;99.90
47540;DHT22;33280;52.152;21.052;2024-02-21T06:42:31;5.20;99.90
47540;DHT22;33280;52.152;21.052;2024-02-21T06:45:18;5.30;99.90
47540;DHT22;33280;52.152;21.052;2024-02-21T06:48:06;5.30;99.90
47540;DHT22;33280;52.152;21.052;2024-02-21T06:50:53;5.30;99.90
47540;DHT22;33280;52.152;21.052;2024-02-21T06:53:41;5.40;99.90
47540;DHT22;33280;52.152;21.052;2024-02-21T06:56:28;5.40;99.90
47540;DHT22;33280;52.152;21.052;2024-02-21T06:59:16;5.50;99.90
47540;DHT22;33280;52.152;21.052;2024-02-21T07:02:04;5.50;99.90
47540;DHT22;33280;52.152;21.052;2024-02-21T07:04:52;5.50;99.90
47540;DHT22;33280;52.152;21.052;2024-02-21T07:07:40;5.50;99.90
47540;DHT22;33280;52.152;21.052;2024-02-21T07:10:28;5.60;99.90
47540;DHT22;33280;52.152;21.052;2024-02-21T07:13:25;5.60;99.90
47540;DHT22;33280;52.152;21.052;2024-02-21T07:16:13;5.60;99.90
47540;DHT22;33280;52.152;21.052;2024-02-21T07:19:00;5.60;99.90
47540;DHT22;33280;52.152;21.052;2024-02-21T07:21:48;5.70;99.90
47540;DHT22;33280;52.152;21.052;2024-02-21T07:24:36;5.80;99.90
47540;DHT22;33280;52.152;21.052;2024-02-21T07:27:24;5.70;99.90
47540;DHT22;33280;52.152;21.052;2024-02-21T07:30:15;5.70;99.90
47540;DHT22;33280;52.152;21.052;2024-02-21T07:33:04;5.70;99.90
47540;DHT22;33280;52.152;21.052;2024-02-21T07:35:51;5.80;99.90
47540;DHT22;33280;52.152;21.052;2024-02-21T07:38:39;5.90;99.90
47540;DHT22;33280;52.152;21.052;2024-02-21T07:41:26;5.90;99.90
47540;DHT22;33280;52.152;21.052;2024-02-21T07:44:16;6.00;99.90
47540;DHT22;33280;52.152;21.052;2024-02-21T07:47:03;6.00;99.90
47540;DHT22;33280;52.152;21.052;2024-02-21T07:49:51;6.10;99.90
47540;DHT22;33280;52.152;21.052;2024-02-21T07:52:38;6.10;99.90
47540;DHT22;33280;52.152;21.052;2024-02-21T07:55:26;6.20;99.90
47540;DHT22;33280;52.152;21.052;2024-02-21T07:58:13;6.20;99.90
47540;DHT22;33280;52.152;21.052;2024-02-21T08:01:01;6.20;99.90
47540;DHT22;33280;52.152;21.052;2024-02-21T08:03:49;6.30;99.90
47540;DHT22;33280;52.152;21.052;2024-02-21T08:06:37;6.20;99.90
47540;DHT22;33280;52.152;21.052;2024-02-21T08:09:24;6.30;99.90
47540;DHT22;33280;52.152;21.052;2024-02-21T08:12:12;6.30;99.90
47540;DHT22;33280;52.152;21.052;2024-02-21T08:14:59;6.40;99.90
47540;DHT22;33280;52.152;21.052;2024-02-21T08:17:47;6.50;99.90
47540;DHT22;33280;52.152;21.052;2024-02-21T08:20:35;6.50;99.90
47540;DHT22;33280;52.152;21.052;2024-02-21T08:23:24;6.60;99.90
47540;DHT22;33280;52.152;21.052;2024-02-21T08:26:12;6.60;99.90
47540;DHT22;33280;52.152;21.052;2024-02-21T08:29:00;6.70;99.90
47540;DHT22;33280;52.152;21.052;2024-02-21T08:31:49;6.80;99.90
47540;DHT22;33280;52.152;21.052;2024-02-21T08:34:37;6.90;99.90
47540;DHT22;33280;52.152;21.052;2024-02-21T08:37:26;6.90;99.90
47540;DHT22;33280;52.152;21.052;2024-02-21T08:40:15;7.00;99.90
47540;DHT22;33280;52.152;21.052;2024-02-21T08:43:07;7.00;99.90
47540;DHT22;33280;52.152;21.052;2024-02-21T08:45:54;7.00;99.90
47540;DHT22;33280;52.152;21.052;2024-02-21T08:48:42;7.10;99.90
47540;DHT22;33280;52.152;21.052;2024-02-21T08:51:30;7.10;99.90
47540;DHT22;33280;52.152;21.052;2024-02-21T08:54:17;7.10;99.90
47540;DHT22;33280;52.152;21.052;2024-02-21T08:57:05;7.10;99.90
47540;DHT22;33280;52.152;21.052;2024-02-21T08:59:52;7.10;99.90
47540;DHT22;33280;52.152;21.052;2024-02-21T09:02:41;7.20;99.90
47540;DHT22;33280;52.152;21.052;2024-02-21T09:05:32;7.20;99.90
47540;DHT22;33280;52.152;21.052;2024-02-21T09:08:23;7.20;99.90
47540;DHT22;33280;52.152;21.052;2024-02-21T09:11:11;7.30;99.90
47540;DHT22;33280;52.152;21.052;2024-02-21T09:14:00;7.40;99.90
47540;DHT22;33280;52.152;21.052;2024-02-21T09:16:47;7.50;99.90
47540;DHT22;33280;52.152;21.052;2024-02-21T09:19:35;7.60;99.90
47540;DHT22;33280;52.152;21.052;2024-02-21T09:22:23;7.60;99.90
47540;DHT22;33280;52.152;21.052;2024-02-21T09:25:11;7.70;99.90
47540;DHT22;33280;52.152;21.052;2024-02-21T09:28:01;7.70;99.90
47540;DHT22;33280;52.152;21.052;2024-02-21T09:30:49;7.80;99.90
47540;DHT22;33280;52.152;21.052;2024-02-21T09:33:37;7.90;99.90
47540;DHT22;33280;52.152;21.052;2024-02-21T09:36:25;7.90;99.90
47540;DHT22;33280;52.152;21.052;2024-02-21T09:39:12;7.90;99.90
47540;DHT22;33280;52.152;21.052;2024-02-21T09:42:06;7.90;99.90
47540;DHT22;33280;52.152;21.052;2024-02-21T09:44:57;7.80;99.90
47540;DHT22;33280;52.152;21.052;2024-02-21T09:51:09;7.70;99.90
47540;DHT22;33280;52.152;21.052;2024-02-21T09:54:04;7.60;99.90
47540;DHT22;33280;52.152;21.052;2024-02-21T09:57:11;7.70;99.90
47540;DHT22;33280;52.152;21.052;2024-02-21T10:00:01;7.80;99.90
47540;DHT22;33280;52.152;21.052;2024-02-21T10:02:54;7.70;99.90
47540;DHT22;33280;52.152;21.052;2024-02-21T10:05:48;7.80;99.90
47540;DHT22;33280;52.152;21.052;2024-02-21T10:08:37;7.90;99.90
47540;DHT22;33280;52.152;21.052;2024-02-21T10:11:25;7.90;99.90
47540;DHT22;33280;52.152;21.052;2024-02-21T10:14:13;7.90;99.90
47540;DHT22;33280;52.152;21.052;2024-02-21T10:17:03;8.00;99.90
47540;DHT22;33280;52.152;21.052;2024-02-21T10:20:11;8.10;99.90
47540;DHT22;33280;52.152;21.052;2024-02-21T10:23:07;8.10;99.90
47540;DHT22;33280;52.152;21.052;2024-02-21T10:26:07;8.20;99.90
47540;DHT22;33280;52.152;21.052;2024-02-21T10:29:01;8.10;99.90
47540;DHT22;33280;52.152;21.052;2024-02-21T10:31:49;8.10;99.90
47540;DHT22;33280;52.152;21.052;2024-02-21T10:34:38;8.10;99.90
47540;DHT22;33280;52.152;21.052;2024-02-21T10:37:26;8.10;99.90
47540;DHT22;33280;52.152;21.052;2024-02-21T10:40:13;8.10;99.90
47540;DHT22;33280;52.152;21.052;2024-02-21T10:43:02;8.20;99.90
47540;DHT22;33280;52.152;21.052;2024-02-21T10:45:52;8.20;99.90
47540;DHT22;33280;52.152;21.052;2024-02-21T10:48:45;8.20;99.90
47540;DHT22;33280;52.152;21.052;2024-02-21T10:51:43;8.20;99.90
47540;DHT22;33280;52.152;21.052;2024-02-21T10:54:45;8.20;99.90
47540;DHT22;33280;52.152;21.052;2024-02-21T10:57:34;8.20;99.90
47540;DHT22;33280;52.152;21.052;2024-02-21T11:00:28;8.10;99.90
47540;DHT22;33280;52.152;21.052;2024-02-21T11:03:17;8.10;99.90
47540;DHT22;33280;52.152;21.052;2024-02-21T11:06:11;8.10;99.90
47540;DHT22;33280;52.152;21.052;2024-02-21T11:09:06;8.10;99.90
47540;DHT22;33280;52.152;21.052;2024-02-21T11:12:05;8.20;99.90
47540;DHT22;33280;52.152;21.052;2024-02-21T11:15:06;8.10;99.90
47540;DHT22;33280;52.152;21.052;2024-02-21T11:17:55;8.10;99.90
47540;DHT22;33280;52.152;21.052;2024-02-21T11:20:50;8.10;99.90
47540;DHT22;33280;52.152;21.052;2024-02-21T11:23:39;8.10;99.90
47540;DHT22;33280;52.152;21.052;2024-02-21T11:26:28;8.10;99.90
47540;DHT22;33280;52.152;21.052;2024-02-21T11:29:23;8.20;99.90
47540;DHT22;33280;52.152;21.052;2024-02-21T11:32:16;8.20;99.90
47540;DHT22;33280;52.152;21.052;2024-02-21T11:35:04;8.20;99.90
47540;DHT22;33280;52.152;21.052;2024-02-21T11:37:55;8.10;99.90
47540;DHT22;33280;52.152;21.052;2024-02-21T11:40:46;8.00;99.90
47540;DHT22;33280;52.152;21.052;2024-02-21T11:43:35;8.00;99.90
47540;DHT22;33280;52.152;21.052;2024-02-21T11:46:25;7.90;99.90
47540;DHT22;33280;52.152;21.052;2024-02-21T11:49:13;7.80;99.90
47540;DHT22;33280;52.152;21.052;2024-02-21T11:52:01;7.80;99.90
47540;DHT22;33280;52.152;21.052;2024-02-21T11:54:52;7.70;99.90
47540;DHT22;33280;52.152;21.052;2024-02-21T11:57:40;7.70;99.90
47540;DHT22;33280;52.152;21.052;2024-02-21T12:00:31;7.60;99.90
47540;DHT22;33280;52.152;21.052;2024-02-21T12:03:19;7.60;99.90
47540;DHT22;33280;52.152;21.052;2024-02-21T12:06:10;7.50;99.90
47540;DHT22;33280;52.152;21.052;2024-02-21T12:09:01;7.50;99.90
47540;DHT22;33280;52.152;21.052;2024-02-21T12:12:00;7.50;99.90
47540;DHT22;33280;52.152;21.052;2024-02-21T12:14:57;7.40;99.90
47540;DHT22;33280;52.152;21.052;2024-02-21T12:17:47;7.40;99.90
47540;DHT22;33280;52.152;21.052;2024-02-21T12:20:35;7.40;99.90
47540;DHT22;33280;52.152;21.052;2024-02-21T12:23:27;7.40;99.90
47540;DHT22;33280;52.152;21.052;2024-02-21T12:26:18;7.40;99.90
47540;DHT22;33280;52.152;21.052;2024-02-21T12:29:12;7.30;99.90
47540;DHT22;33280;52.152;21.052;2024-02-21T12:32:03;7.30;99.90
47540;DHT22;33280;52.152;21.052;2024-02-21T12:34:51;7.30;99.90
47540;DHT22;33280;52.152;21.052;2024-02-21T12:37:40;7.30;99.90
47540;DHT22;33280;52.152;21.052;2024-02-21T12:40:28;7.30;99.90
47540;DHT22;33280;52.152;21.052;2024-02-21T12:43:20;7.30;99.90
47540;DHT22;33280;52.152;21.052;2024-02-21T12:46:09;7.30;99.90
47540;DHT22;33280;52.152;21.052;2024-02-21T12:48:57;7.30;99.90
47540;DHT22;33280;52.152;21.052;2024-02-21T12:51:45;7.20;99.90
47540;DHT22;33280;52.152;21.052;2024-02-21T12:54:36;7.20;99.90
47540;DHT22;33280;52.152;21.052;2024-02-21T12:57:24;7.30;99.90
47540;DHT22;33280;52.152;21.052;2024-02-21T13:00:14;7.20;99.90
47540;DHT22;33280;52.152;21.052;2024-02-21T13:03:03;7.20;99.90
47540;DHT22;33280;52.152;21.052;2024-02-21T13:05:51;7.20;99.90
47540;DHT22;33280;52.152;21.052;2024-02-21T13:08:39;7.20;99.90
47540;DHT22;33280;52.152;21.052;2024-02-21T13:11:26;7.20;99.90
47540;DHT22;33280;52.152;21.052;2024-02-21T13:14:19;7.20;99.90
47540;DHT22;33280;52.152;21.052;2024-02-21T13:17:06;7.20;99.90
47540;DHT22;33280;52.152;21.052;2024-02-21T13:19:54;7.10;99.90
47540;DHT22;33280;52.152;21.052;2024-02-21T13:22:42;7.10;99.90
47540;DHT22;33280;52.152;21.052;2024-02-21T13:25:30;7.20;99.90
47540;DHT22;33280;52.152;21.052;2024-02-21T13:28:17;7.10;99.90
47540;DHT22;33280;52.152;21.052;2024-02-21T13:31:06;7.20;99.90
47540;DHT22;33280;52.152;21.052;2024-02-21T13:33:53;7.20;99.90
47540;DHT22;33280;52.152;21.052;2024-02-21T13:36:41;7.10;99.90
47540;DHT22;33280;52.152;21.052;2024-02-21T13:39:28;7.10;99.90
47540;DHT22;33280;52.152;21.052;2024-02-21T13:42:16;7.10;99.90
47540;DHT22;33280;52.152;21.052;2024-02-21T13:45:05;7.20;99.90
47540;DHT22;33280;52.152;21.052;2024-02-21T13:47:53;7.20;99.90
47540;DHT22;33280;52.152;21.052;2024-02-21T13:50:42;7.10;99.90
47540;DHT22;33280;52.152;21.052;2024-02-21T13:53:31;7.10;99.90
47540;DHT22;33280;52.152;21.052;2024-02-21T13:56:18;7.10;99.90
47540;DHT22;33280;52.152;21.052;2024-02-21T13:59:06;7.00;99.90
47540;DHT22;33280;52.152;21.052;2024-02-21T14:01:54;7.10;99.90
47540;DHT22;33280;52.152;21.052;2024-02-21T14:04:41;7.10;99.90
47540;DHT22;33280;52.152;21.052;2024-02-21T14:07:30;7.10;99.90
47540;DHT22;33280;52.152;21.052;2024-02-21T14:10:18;7.10;99.90
47540;DHT22;33280;52.152;21.052;2024-02-21T14:13:06;7.10;99.90
47540;DHT22;33280;52.152;21.052;2024-02-21T14:15:53;7.10;99.90
47540;DHT22;33280;52.152;21.052;2024-02-21T14:18:41;7.10;99.90
47540;DHT22;33280;52.152;21.052;2024-02-21T14:21:34;7.10;99.90
47540;DHT22;33280;52.152;21.052;2024-02-21T14:24:25;7.10;99.90
47540;DHT22;33280;52.152;21.052;2024-02-21T14:27:13;7.10;99.90
47540;DHT22;33280;52.152;21.052;2024-02-21T14:30:01;7.00;99.90
47540;DHT22;33280;52.152;21.052;2024-02-21T14:32:49;7.10;99.90
47540;DHT22;33280;52.152;21.052;2024-02-21T14:35:39;7.10;99.90
47540;DHT22;33280;52.152;21.052;2024-02-21T14:38:26;7.00;99.90
47540;DHT22;33280;52.152;21.052;2024-02-21T14:41:15;7.10;99.90
47540;DHT22;33280;52.152;21.052;2024-02-21T14:44:03;7.10;99.90
47540;DHT22;33280;52.152;21.052;2024-02-21T14:46:51;7.10;99.90
47540;DHT22;33280;52.152;21.052;2024-02-21T14:49:39;7.10;99.90
47540;DHT22;33280;52.152;21.052;2024-02-21T14:52:26;7.10;99.90
47540;DHT22;33280;52.152;21.052;2024-02-21T14:55:17;7.10;99.90
47540;DHT22;33280;52.152;21.052;2024-02-21T14:58:07;7.10;99.90
47540;DHT22;33280;52.152;21.052;2024-02-21T15:00:55;7.10;99.90
47540;DHT22;33280;52.152;21.052;2024-02-21T15:03:43;7.10;99.90
47540;DHT22;33280;52.152;21.052;2024-02-21T15:06:31;7.10;99.90
47540;DHT22;33280;52.152;21.052;2024-02-21T15:09:19;7.10;99.90
47540;DHT22;33280;52.152;21.052;2024-02-21T15:12:06;7.10;99.90
47540;DHT22;33280;52.152;21.052;2024-02-21T15:14:54;7.00;99.90
47540;DHT22;33280;52.152;21.052;2024-02-21T15:17:45;7.00;99.90
47540;DHT22;33280;52.152;21.052;2024-02-21T15:20:33;7.00;99.90
47540;DHT22;33280;52.152;21.052;2024-02-21T15:23:23;7.00;99.90
47540;DHT22;33280;52.152;21.052;2024-02-21T15:26:12;7.10;99.90
47540;DHT22;33280;52.152;21.052;2024-02-21T15:29:01;7.10;99.90
47540;DHT22;33280;52.152;21.052;2024-02-21T15:31:52;7.00;99.90
47540;DHT22;33280;52.152;21.052;2024-02-21T15:34:40;7.00;99.90
47540;DHT22;33280;52.152;21.052;2024-02-21T15:37:29;7.00;99.90
47540;DHT22;33280;52.152;21.052;2024-02-21T15:40:16;7.00;99.90
47540;DHT22;33280;52.152;21.052;2024-02-21T15:43:05;7.00;99.90
47540;DHT22;33280;52.152;21.052;2024-02-21T15:45:52;7.00;99.90
47540;DHT22;33280;52.152;21.052;2024-02-21T15:48:40;7.00;99.90
47540;DHT22;33280;52.152;21.052;2024-02-21T15:51:27;7.00;99.90
47540;DHT22;33280;52.152;21.052;2024-02-21T15:54:17;7.00;99.90
47540;DHT22;33280;52.152;21.052;2024-02-21T15:57:10;7.00;99.90
47540;DHT22;33280;52.152;21.052;2024-02-21T15:59:57;7.00;99.90
47540;DHT22;33280;52.152;21.052;2024-02-21T16:02:44;7.00;99.90
47540;DHT22;33280;52.152;21.052;2024-02-21T16:05:32;7.00;99.90
47540;DHT22;33280;52.152;21.052;2024-02-21T16:08:20;7.00;99.90
47540;DHT22;33280;52.152;21.052;2024-02-21T16:11:18;7.00;99.90
47540;DHT22;33280;52.152;21.052;2024-02-21T16:14:06;7.00;99.90
47540;DHT22;33280;52.152;21.052;2024-02-21T16:16:54;7.10;99.90
47540;DHT22;33280;52.152;21.052;2024-02-21T16:19:44;7.00;99.90
47540;DHT22;33280;52.152;21.052;2024-02-21T16:22:32;7.10;99.90
47540;DHT22;33280;52.152;21.052;2024-02-21T16:25:19;7.10;99.90
47540;DHT22;33280;52.152;21.052;2024-02-21T16:28:07;7.10;99.90
47540;DHT22;33280;52.152;21.052;2024-02-21T16:30:56;7.10;99.90
47540;DHT22;33280;52.152;21.052;2024-02-21T16:33:45;7.10;99.90
47540;DHT22;33280;52.152;21.052;2024-02-21T16:36:33;7.10;99.90
47540;DHT22;33280;52.152;21.052;2024-02-21T16:39:20;7.10;99.90
47540;DHT22;33280;52.152;21.052;2024-02-21T16:42:09;7.10;99.90
47540;DHT22;33280;52.152;21.052;2024-02-21T16:44:58;7.00;99.90
47540;DHT22;33280;52.152;21.052;2024-02-21T16:47:48;7.00;99.90
47540;DHT22;33280;52.152;21.052;2024-02-21T16:50:36;7.00;99.90
47540;DHT22;33280;52.152;21.052;2024-02-21T16:53:39;7.00;99.90
47540;DHT22;33280;52.152;21.052;2024-02-21T16:56:27;6.90;99.90
47540;DHT22;33280;52.152;21.052;2024-02-21T16:59:14;6.90;99.90
47540;DHT22;33280;52.152;21.052;2024-02-21T17:02:03;6.90;99.90
47540;DHT22;33280;52.152;21.052;2024-02-21T17:04:51;6.90;99.90
47540;DHT22;33280;52.152;21.052;2024-02-21T17:07:42;6.90;99.90
47540;DHT22;33280;52.152;21.052;2024-02-21T17:10:30;6.90;99.90
47540;DHT22;33280;52.152;21.052;2024-02-21T17:13:21;6.90;99.90
47540;DHT22;33280;52.152;21.052;2024-02-21T17:16:09;6.90;99.90
47540;DHT22;33280;52.152;21.052;2024-02-21T17:18:59;6.80;99.90
47540;DHT22;33280;52.152;21.052;2024-02-21T17:21:47;6.80;99.90
47540;DHT22;33280;52.152;21.052;2024-02-21T17:24:34;6.80;99.90
47540;DHT22;33280;52.152;21.052;2024-02-21T17:27:22;6.80;99.90
47540;DHT22;33280;52.152;21.052;2024-02-21T17:30:10;6.70;99.90
47540;DHT22;33280;52.152;21.052;2024-02-21T17:32:58;6.70;99.90
47540;DHT22;33280;52.152;21.052;2024-02-21T17:35:46;6.70;99.90
47540;DHT22;33280;52.152;21.052;2024-02-21T17:38:35;6.70;99.90
47540;DHT22;33280;52.152;21.052;2024-02-21T17:41:23;6.80;99.90
47540;DHT22;33280;52.152;21.052;2024-02-21T17:44:10;6.70;99.90
47540;DHT22;33280;52.152;21.052;2024-02-21T17:46:58;6.70;99.90
47540;DHT22;33280;52.152;21.052;2024-02-21T17:49:46;6.70;99.90